sensor_id;sensor_type;location;lat;lon;timestamp;P1;durP1;ratioP1;P2;durP2;ratioP2
64932;SDS011;51446;53.850;10.662;2023-04-03T00:01:55;6.85;;;3.85;;
64932;SDS011;51446;53.850;10.662;2023-04-03T00:04:20;7.78;;;3.25;;
64932;SDS011;51446;53.850;10.662;2023-04-03T00:06:45;7.50;;;2.75;;
64932;SDS011;51446;53.850;10.662;2023-04-03T00:09:11;5.85;;;3.22;;
64932;SDS011;51446;53.850;10.662;2023-04-03T00:11:36;6.45;;;3.03;;
64932;SDS011;51446;53.850;10.662;2023-04-03T00:14:01;6.87;;;3.47;;
64932;SDS011;51446;53.850;10.662;2023-04-03T00:16:26;8.23;;;3.70;;
64932;SDS011;51446;53.850;10.662;2023-04-03T00:18:52;7.70;;;3.90;;
64932;SDS011;51446;53.850;10.662;2023-04-03T00:21:17;9.30;;;3.10;;
64932;SDS011;51446;53.850;10.662;2023-04-03T00:23:42;10.87;;;3.70;;
64932;SDS011;51446;53.850;10.662;2023-04-03T00:26:08;8.17;;;3.83;;
64932;SDS011;51446;53.850;10.662;2023-04-03T00:28:33;6.83;;;3.63;;
64932;SDS011;51446;53.850;10.662;2023-04-03T00:30:58;7.10;;;3.10;;
64932;SDS011;51446;53.850;10.662;2023-04-03T00:33:24;6.50;;;3.67;;
64932;SDS011;51446;53.850;10.662;2023-04-03T00:35:49;7.27;;;3.10;;
64932;SDS011;51446;53.850;10.662;2023-04-03T00:38:15;7.47;;;3.05;;
64932;SDS011;51446;53.850;10.662;2023-04-03T00:40:44;5.20;;;3.13;;
64932;SDS011;51446;53.850;10.662;2023-04-03T00:43:13;10.70;;;3.58;;
64932;SDS011;51446;53.850;10.662;2023-04-03T00:45:44;5.60;;;3.17;;
64932;SDS011;51446;53.850;10.662;2023-04-03T00:48:13;6.40;;;3.23;;
64932;SDS011;51446;53.850;10.662;2023-04-03T00:50:58;8.63;;;3.80;;
64932;SDS011;51446;53.850;10.662;2023-04-03T00:53:26;8.48;;;4.03;;
64932;SDS011;51446;53.850;10.662;2023-04-03T00:55:55;7.03;;;3.27;;
64932;SDS011;51446;53.850;10.662;2023-04-03T00:58:23;8.45;;;3.33;;
64932;SDS011;51446;53.850;10.662;2023-04-03T01:00:57;12.20;;;3.92;;
64932;SDS011;51446;53.850;10.662;2023-04-03T01:03:23;9.25;;;3.67;;
64932;SDS011;51446;53.850;10.662;2023-04-03T01:05:49;7.50;;;3.70;;
64932;SDS011;51446;53.850;10.662;2023-04-03T01:08:14;5.53;;;4.07;;
64932;SDS011;51446;53.850;10.662;2023-04-03T01:10:40;10.98;;;4.82;;
64932;SDS011;51446;53.850;10.662;2023-04-03T01:13:23;10.67;;;4.60;;
64932;SDS011;51446;53.850;10.662;2023-04-03T01:15:52;10.70;;;4.80;;
64932;SDS011;51446;53.850;10.662;2023-04-03T01:18:18;12.47;;;5.97;;
64932;SDS011;51446;53.850;10.662;2023-04-03T01:20:57;7.87;;;5.47;;
64932;SDS011;51446;53.850;10.662;2023-04-03T01:23:32;9.30;;;5.13;;
64932;SDS011;51446;53.850;10.662;2023-04-03T01:26:16;6.78;;;4.78;;
64932;SDS011;51446;53.850;10.662;2023-04-03T01:28:41;12.03;;;5.37;;
64932;SDS011;51446;53.850;10.662;2023-04-03T01:33:38;8.25;;;5.50;;
64932;SDS011;51446;53.850;10.662;2023-04-03T01:36:04;6.93;;;4.83;;
64932;SDS011;51446;53.850;10.662;2023-04-03T01:38:30;9.35;;;5.13;;
64932;SDS011;51446;53.850;10.662;2023-04-03T01:40:55;7.63;;;4.60;;
64932;SDS011;51446;53.850;10.662;2023-04-03T01:43:20;8.77;;;4.67;;
64932;SDS011;51446;53.850;10.662;2023-04-03T01:45:46;6.37;;;4.20;;
64932;SDS011;51446;53.850;10.662;2023-04-03T01:48:11;7.75;;;4.35;;
64932;SDS011;51446;53.850;10.662;2023-04-03T01:50:37;8.47;;;3.57;;
64932;SDS011;51446;53.850;10.662;2023-04-03T01:53:02;7.37;;;4.07;;
64932;SDS011;51446;53.850;10.662;2023-04-03T01:55:27;6.13;;;3.70;;
64932;SDS011;51446;53.850;10.662;2023-04-03T01:57:53;4.67;;;3.30;;
64932;SDS011;51446;53.850;10.662;2023-04-03T02:00:18;6.00;;;3.90;;
64932;SDS011;51446;53.850;10.662;2023-04-03T02:02:43;6.60;;;3.20;;
64932;SDS011;51446;53.850;10.662;2023-04-03T02:05:09;5.40;;;3.50;;
64932;SDS011;51446;53.850;10.662;2023-04-03T02:07:34;5.23;;;3.20;;
64932;SDS011;51446;53.850;10.662;2023-04-03T02:10:00;5.80;;;3.20;;
64932;SDS011;51446;53.850;10.662;2023-04-03T02:12:25;3.97;;;3.23;;
64932;SDS011;51446;53.850;10.662;2023-04-03T02:14:50;7.33;;;3.30;;
64932;SDS011;51446;53.850;10.662;2023-04-03T02:17:15;5.40;;;3.10;;
64932;SDS011;51446;53.850;10.662;2023-04-03T02:19:41;4.40;;;3.10;;
64932;SDS011;51446;53.850;10.662;2023-04-03T02:22:06;6.70;;;3.57;;
64932;SDS011;51446;53.850;10.662;2023-04-03T02:24:31;4.68;;;3.22;;
64932;SDS011;51446;53.850;10.662;2023-04-03T02:26:57;7.28;;;2.90;;
64932;SDS011;51446;53.850;10.662;2023-04-03T02:29:23;8.33;;;3.23;;
64932;SDS011;51446;53.850;10.662;2023-04-03T02:31:48;4.40;;;3.30;;
64932;SDS011;51446;53.850;10.662;2023-04-03T02:34:14;8.20;;;3.40;;
64932;SDS011;51446;53.850;10.662;2023-04-03T02:36:39;6.63;;;3.23;;
64932;SDS011;51446;53.850;10.662;2023-04-03T02:39:05;10.17;;;3.67;;
64932;SDS011;51446;53.850;10.662;2023-04-03T02:41:30;6.50;;;3.00;;
64932;SDS011;51446;53.850;10.662;2023-04-03T02:44:00;4.88;;;3.05;;
64932;SDS011;51446;53.850;10.662;2023-04-03T02:46:26;4.50;;;2.73;;
64932;SDS011;51446;53.850;10.662;2023-04-03T02:48:52;3.58;;;2.83;;
64932;SDS011;51446;53.850;10.662;2023-04-03T02:51:17;5.97;;;2.80;;
64932;SDS011;51446;53.850;10.662;2023-04-03T02:53:42;6.87;;;3.33;;
64932;SDS011;51446;53.850;10.662;2023-04-03T02:56:08;3.80;;;2.87;;
64932;SDS011;51446;53.850;10.662;2023-04-03T02:58:33;8.27;;;3.33;;
64932;SDS011;51446;53.850;10.662;2023-04-03T03:00:58;5.27;;;3.03;;
64932;SDS011;51446;53.850;10.662;2023-04-03T03:03:23;5.80;;;3.13;;
64932;SDS011;51446;53.850;10.662;2023-04-03T03:05:49;6.37;;;3.37;;
64932;SDS011;51446;53.850;10.662;2023-04-03T03:08:14;4.67;;;3.07;;
64932;SDS011;51446;53.850;10.662;2023-04-03T03:10:40;5.10;;;3.40;;
64932;SDS011;51446;53.850;10.662;2023-04-03T03:13:05;5.43;;;3.60;;
64932;SDS011;51446;53.850;10.662;2023-04-03T03:15:30;4.57;;;3.50;;
64932;SDS011;51446;53.850;10.662;2023-04-03T03:17:55;5.17;;;3.23;;
64932;SDS011;51446;53.850;10.662;2023-04-03T03:20:21;8.23;;;3.65;;
64932;SDS011;51446;53.850;10.662;2023-04-03T03:22:46;7.63;;;3.53;;
64932;SDS011;51446;53.850;10.662;2023-04-03T03:25:11;7.33;;;3.23;;
64932;SDS011;51446;53.850;10.662;2023-04-03T03:27:37;6.13;;;3.43;;
64932;SDS011;51446;53.850;10.662;2023-04-03T03:30:02;6.40;;;3.03;;
64932;SDS011;51446;53.850;10.662;2023-04-03T03:32:28;7.33;;;3.43;;
64932;SDS011;51446;53.850;10.662;2023-04-03T03:34:53;3.30;;;2.90;;
64932;SDS011;51446;53.850;10.662;2023-04-03T03:37:18;8.20;;;3.47;;
64932;SDS011;51446;53.850;10.662;2023-04-03T03:39:43;4.40;;;3.10;;
64932;SDS011;51446;53.850;10.662;2023-04-03T03:42:09;6.20;;;3.15;;
64932;SDS011;51446;53.850;10.662;2023-04-03T03:44:34;8.40;;;3.40;;
64932;SDS011;51446;53.850;10.662;2023-04-03T03:46:59;5.50;;;3.03;;
64932;SDS011;51446;53.850;10.662;2023-04-03T03:49:24;4.00;;;2.90;;
64932;SDS011;51446;53.850;10.662;2023-04-03T03:51:50;10.60;;;3.30;;
64932;SDS011;51446;53.850;10.662;2023-04-03T03:54:15;5.17;;;3.30;;
64932;SDS011;51446;53.850;10.662;2023-04-03T03:56:41;7.77;;;4.13;;
64932;SDS011;51446;53.850;10.662;2023-04-03T03:59:06;9.03;;;3.20;;
64932;SDS011;51446;53.850;10.662;2023-04-03T04:01:31;6.70;;;3.30;;
64932;SDS011;51446;53.850;10.662;2023-04-03T04:03:57;5.93;;;3.13;;
64932;SDS011;51446;53.850;10.662;2023-04-03T04:06:22;5.17;;;3.17;;
64932;SDS011;51446;53.850;10.662;2023-04-03T04:08:47;6.75;;;3.08;;
64932;SDS011;51446;53.850;10.662;2023-04-03T04:11:13;8.10;;;3.60;;
64932;SDS011;51446;53.850;10.662;2023-04-03T04:13:39;3.88;;;3.58;;
64932;SDS011;51446;53.850;10.662;2023-04-03T04:16:05;5.47;;;3.00;;
64932;SDS011;51446;53.850;10.662;2023-04-03T04:18:31;8.68;;;3.65;;
64932;SDS011;51446;53.850;10.662;2023-04-03T04:20:56;7.03;;;3.30;;
64932;SDS011;51446;53.850;10.662;2023-04-03T04:23:22;8.10;;;3.77;;
64932;SDS011;51446;53.850;10.662;2023-04-03T04:25:47;6.73;;;3.57;;
64932;SDS011;51446;53.850;10.662;2023-04-03T04:28:13;5.05;;;3.40;;
64932;SDS011;51446;53.850;10.662;2023-04-03T04:30:39;5.05;;;4.00;;
64932;SDS011;51446;53.850;10.662;2023-04-03T04:33:04;7.90;;;3.80;;
64932;SDS011;51446;53.850;10.662;2023-04-03T04:35:30;9.27;;;3.97;;
64932;SDS011;51446;53.850;10.662;2023-04-03T04:37:55;7.30;;;3.60;;
64932;SDS011;51446;53.850;10.662;2023-04-03T04:40:21;12.00;;;6.13;;
64932;SDS011;51446;53.850;10.662;2023-04-03T04:42:46;13.93;;;7.53;;
64932;SDS011;51446;53.850;10.662;2023-04-03T04:45:11;17.23;;;8.18;;
64932;SDS011;51446;53.850;10.662;2023-04-03T04:47:37;15.57;;;7.30;;
64932;SDS011;51446;53.850;10.662;2023-04-03T04:50:02;10.80;;;6.10;;
64932;SDS011;51446;53.850;10.662;2023-04-03T04:52:28;10.53;;;4.90;;
64932;SDS011;51446;53.850;10.662;2023-04-03T04:54:53;6.73;;;3.67;;
64932;SDS011;51446;53.850;10.662;2023-04-03T04:57:18;10.90;;;3.97;;
64932;SDS011;51446;53.850;10.662;2023-04-03T04:59:44;8.85;;;5.00;;
64932;SDS011;51446;53.850;10.662;2023-04-03T05:02:09;12.83;;;6.67;;
64932;SDS011;51446;53.850;10.662;2023-04-03T05:04:34;11.13;;;4.87;;
64932;SDS011;51446;53.850;10.662;2023-04-03T05:07:00;11.03;;;4.97;;
64932;SDS011;51446;53.850;10.662;2023-04-03T05:09:25;7.87;;;3.50;;
64932;SDS011;51446;53.850;10.662;2023-04-03T05:11:50;7.27;;;3.77;;
64932;SDS011;51446;53.850;10.662;2023-04-03T05:14:15;8.47;;;3.40;;
64932;SDS011;51446;53.850;10.662;2023-04-03T05:16:41;7.07;;;3.17;;
64932;SDS011;51446;53.850;10.662;2023-04-03T05:19:06;11.53;;;3.77;;
64932;SDS011;51446;53.850;10.662;2023-04-03T05:21:31;12.20;;;6.53;;
64932;SDS011;51446;53.850;10.662;2023-04-03T05:23:58;22.07;;;12.00;;
64932;SDS011;51446;53.850;10.662;2023-04-03T05:26:24;10.10;;;5.40;;
64932;SDS011;51446;53.850;10.662;2023-04-03T05:28:51;7.85;;;3.90;;
64932;SDS011;51446;53.850;10.662;2023-04-03T05:31:16;7.97;;;3.80;;
64932;SDS011;51446;53.850;10.662;2023-04-03T05:33:42;8.07;;;3.57;;
64932;SDS011;51446;53.850;10.662;2023-04-03T05:36:07;8.10;;;3.55;;
64932;SDS011;51446;53.850;10.662;2023-04-03T05:38:33;8.17;;;3.03;;
64932;SDS011;51446;53.850;10.662;2023-04-03T05:40:58;5.00;;;2.97;;
64932;SDS011;51446;53.850;10.662;2023-04-03T05:43:23;11.20;;;4.43;;
64932;SDS011;51446;53.850;10.662;2023-04-03T05:45:50;6.43;;;3.60;;
64932;SDS011;51446;53.850;10.662;2023-04-03T05:48:15;7.30;;;3.80;;
64932;SDS011;51446;53.850;10.662;2023-04-03T05:50:41;6.73;;;3.73;;
64932;SDS011;51446;53.850;10.662;2023-04-03T05:53:07;4.77;;;3.47;;
64932;SDS011;51446;53.850;10.662;2023-04-03T05:55:40;11.57;;;3.40;;
64932;SDS011;51446;53.850;10.662;2023-04-03T05:58:05;9.03;;;3.50;;
64932;SDS011;51446;53.850;10.662;2023-04-03T06:00:31;5.90;;;3.30;;
64932;SDS011;51446;53.850;10.662;2023-04-03T06:02:56;6.03;;;3.20;;
64932;SDS011;51446;53.850;10.662;2023-04-03T06:05:21;6.57;;;3.30;;
64932;SDS011;51446;53.850;10.662;2023-04-03T06:07:47;9.57;;;2.97;;
64932;SDS011;51446;53.850;10.662;2023-04-03T06:10:14;5.38;;;2.65;;
64932;SDS011;51446;53.850;10.662;2023-04-03T06:12:39;4.47;;;3.10;;
64932;SDS011;51446;53.850;10.662;2023-04-03T06:15:05;5.07;;;3.07;;
64932;SDS011;51446;53.850;10.662;2023-04-03T06:17:32;5.43;;;2.50;;
64932;SDS011;51446;53.850;10.662;2023-04-03T06:19:58;7.30;;;3.10;;
64932;SDS011;51446;53.850;10.662;2023-04-03T06:22:23;7.23;;;3.23;;
64932;SDS011;51446;53.850;10.662;2023-04-03T06:24:50;7.40;;;3.10;;
64932;SDS011;51446;53.850;10.662;2023-04-03T06:27:15;9.53;;;2.77;;
64932;SDS011;51446;53.850;10.662;2023-04-03T06:29:41;4.93;;;2.40;;
64932;SDS011;51446;53.850;10.662;2023-04-03T06:32:07;5.13;;;2.50;;
64932;SDS011;51446;53.850;10.662;2023-04-03T06:34:32;14.03;;;2.73;;
64932;SDS011;51446;53.850;10.662;2023-04-03T06:36:58;5.95;;;2.45;;
64932;SDS011;51446;53.850;10.662;2023-04-03T06:39:23;8.57;;;2.83;;
64932;SDS011;51446;53.850;10.662;2023-04-03T06:41:49;7.47;;;2.47;;
64932;SDS011;51446;53.850;10.662;2023-04-03T06:44:15;7.97;;;2.53;;
64932;SDS011;51446;53.850;10.662;2023-04-03T06:46:41;6.97;;;2.80;;
64932;SDS011;51446;53.850;10.662;2023-04-03T06:49:07;4.45;;;1.80;;
64932;SDS011;51446;53.850;10.662;2023-04-03T06:51:33;6.80;;;1.80;;
64932;SDS011;51446;53.850;10.662;2023-04-03T06:54:00;4.38;;;2.28;;
64932;SDS011;51446;53.850;10.662;2023-04-03T06:56:26;5.07;;;2.00;;
64932;SDS011;51446;53.850;10.662;2023-04-03T06:58:52;4.20;;;1.60;;
64932;SDS011;51446;53.850;10.662;2023-04-03T07:01:22;2.67;;;1.40;;
64932;SDS011;51446;53.850;10.662;2023-04-03T07:03:49;3.72;;;1.20;;
64932;SDS011;51446;53.850;10.662;2023-04-03T07:06:15;4.80;;;1.27;;
64932;SDS011;51446;53.850;10.662;2023-04-03T07:08:42;4.32;;;1.00;;
64932;SDS011;51446;53.850;10.662;2023-04-03T07:11:08;4.50;;;1.23;;
64932;SDS011;51446;53.850;10.662;2023-04-03T07:13:34;4.65;;;1.00;;
64932;SDS011;51446;53.850;10.662;2023-04-03T07:16:00;2.95;;;1.15;;
64932;SDS011;51446;53.850;10.662;2023-04-03T07:18:26;3.50;;;1.17;;
64932;SDS011;51446;53.850;10.662;2023-04-03T07:20:51;3.05;;;1.40;;
64932;SDS011;51446;53.850;10.662;2023-04-03T07:23:17;3.43;;;1.10;;
64932;SDS011;51446;53.850;10.662;2023-04-03T07:25:43;3.55;;;1.23;;
64932;SDS011;51446;53.850;10.662;2023-04-03T07:28:09;4.82;;;1.40;;
64932;SDS011;51446;53.850;10.662;2023-04-03T07:30:34;5.97;;;1.27;;
64932;SDS011;51446;53.850;10.662;2023-04-03T07:33:07;4.60;;;1.35;;
64932;SDS011;51446;53.850;10.662;2023-04-03T07:35:32;5.20;;;1.50;;
64932;SDS011;51446;53.850;10.662;2023-04-03T07:37:57;3.20;;;1.43;;
64932;SDS011;51446;53.850;10.662;2023-04-03T07:40:22;3.87;;;1.60;;
64932;SDS011;51446;53.850;10.662;2023-04-03T07:42:48;3.80;;;1.30;;
64932;SDS011;51446;53.850;10.662;2023-04-03T07:45:13;2.70;;;1.20;;
64932;SDS011;51446;53.850;10.662;2023-04-03T07:47:38;4.00;;;1.80;;
64932;SDS011;51446;53.850;10.662;2023-04-03T07:50:04;4.63;;;1.20;;
64932;SDS011;51446;53.850;10.662;2023-04-03T07:52:30;3.75;;;1.05;;
64932;SDS011;51446;53.850;10.662;2023-04-03T07:54:55;2.80;;;0.90;;
64932;SDS011;51446;53.850;10.662;2023-04-03T07:57:20;6.23;;;3.00;;
64932;SDS011;51446;53.850;10.662;2023-04-03T07:59:46;3.27;;;1.33;;
64932;SDS011;51446;53.850;10.662;2023-04-03T08:02:11;4.40;;;1.43;;
64932;SDS011;51446;53.850;10.662;2023-04-03T08:04:36;2.85;;;1.25;;
64932;SDS011;51446;53.850;10.662;2023-04-03T08:07:02;3.77;;;1.30;;
64932;SDS011;51446;53.850;10.662;2023-04-03T08:09:27;4.63;;;1.10;;
64932;SDS011;51446;53.850;10.662;2023-04-03T08:11:52;2.83;;;1.37;;
64932;SDS011;51446;53.850;10.662;2023-04-03T08:14:18;4.07;;;1.30;;
64932;SDS011;51446;53.850;10.662;2023-04-03T08:16:44;2.67;;;0.93;;
64932;SDS011;51446;53.850;10.662;2023-04-03T08:19:11;2.05;;;1.08;;
64932;SDS011;51446;53.850;10.662;2023-04-03T08:21:37;6.80;;;4.05;;
64932;SDS011;51446;53.850;10.662;2023-04-03T08:24:06;5.50;;;3.13;;
64932;SDS011;51446;53.850;10.662;2023-04-03T08:26:32;27.73;;;17.03;;
64932;SDS011;51446;53.850;10.662;2023-04-03T08:28:57;14.00;;;7.13;;
64932;SDS011;51446;53.850;10.662;2023-04-03T08:31:22;6.17;;;3.73;;
64932;SDS011;51446;53.850;10.662;2023-04-03T08:33:47;2.00;;;1.20;;
64932;SDS011;51446;53.850;10.662;2023-04-03T08:36:21;5.55;;;2.03;;
64932;SDS011;51446;53.850;10.662;2023-04-03T08:38:51;6.13;;;2.40;;
64932;SDS011;51446;53.850;10.662;2023-04-03T08:52:09;6.25;;;3.03;;
64932;SDS011;51446;53.850;10.662;2023-04-03T08:54:45;6.55;;;3.88;;
64932;SDS011;51446;53.850;10.662;2023-04-03T08:57:13;3.47;;;1.90;;
64932;SDS011;51446;53.850;10.662;2023-04-03T08:59:39;4.43;;;1.30;;
64932;SDS011;51446;53.850;10.662;2023-04-03T09:02:16;5.97;;;2.90;;
64932;SDS011;51446;53.850;10.662;2023-04-03T09:04:49;5.65;;;2.70;;
64932;SDS011;51446;53.850;10.662;2023-04-03T09:07:33;16.87;;;10.47;;
64932;SDS011;51446;53.850;10.662;2023-04-03T09:10:05;3.10;;;1.35;;
64932;SDS011;51446;53.850;10.662;2023-04-03T09:12:37;4.82;;;1.00;;
64932;SDS011;51446;53.850;10.662;2023-04-03T09:15:15;4.03;;;1.23;;
64932;SDS011;51446;53.850;10.662;2023-04-03T09:17:53;3.77;;;0.93;;
64932;SDS011;51446;53.850;10.662;2023-04-03T09:22:54;3.70;;;1.00;;
64932;SDS011;51446;53.850;10.662;2023-04-03T09:25:23;1.60;;;1.10;;
64932;SDS011;51446;53.850;10.662;2023-04-03T09:27:52;2.25;;;1.10;;
64932;SDS011;51446;53.850;10.662;2023-04-03T09:30:19;5.40;;;1.73;;
64932;SDS011;51446;53.850;10.662;2023-04-03T09:32:51;5.57;;;2.67;;
64932;SDS011;51446;53.850;10.662;2023-04-03T09:35:25;5.85;;;1.05;;
64932;SDS011;51446;53.850;10.662;2023-04-03T09:40:38;5.03;;;1.02;;
64932;SDS011;51446;53.850;10.662;2023-04-03T09:45:42;4.20;;;1.10;;
64932;SDS011;51446;53.850;10.662;2023-04-03T09:48:13;3.80;;;1.30;;
64932;SDS011;51446;53.850;10.662;2023-04-03T09:53:33;5.35;;;1.20;;
64932;SDS011;51446;53.850;10.662;2023-04-03T09:56:02;3.60;;;1.10;;
64932;SDS011;51446;53.850;10.662;2023-04-03T09:58:49;3.15;;;1.20;;
64932;SDS011;51446;53.850;10.662;2023-04-03T10:01:25;3.58;;;1.20;;
64932;SDS011;51446;53.850;10.662;2023-04-03T10:04:02;4.47;;;1.50;;
64932;SDS011;51446;53.850;10.662;2023-04-03T10:06:37;3.45;;;1.30;;
64932;SDS011;51446;53.850;10.662;2023-04-03T10:09:12;1.95;;;1.00;;
64932;SDS011;51446;53.850;10.662;2023-04-03T10:11:44;9.75;;;1.60;;
64932;SDS011;51446;53.850;10.662;2023-04-03T10:14:21;4.53;;;1.48;;
64932;SDS011;51446;53.850;10.662;2023-04-03T10:16:48;2.15;;;1.20;;
64932;SDS011;51446;53.850;10.662;2023-04-03T10:22:12;2.22;;;1.33;;
64932;SDS011;51446;53.850;10.662;2023-04-03T10:24:47;3.00;;;1.30;;
64932;SDS011;51446;53.850;10.662;2023-04-03T10:27:15;2.72;;;1.30;;
64932;SDS011;51446;53.850;10.662;2023-04-03T10:29:51;4.40;;;1.25;;
64932;SDS011;51446;53.850;10.662;2023-04-03T10:41:07;7.35;;;5.95;;
64932;SDS011;51446;53.850;10.662;2023-04-03T10:47:10;2.72;;;0.75;;
64932;SDS011;51446;53.850;10.662;2023-04-03T10:58:03;1.95;;;0.93;;
64932;SDS011;51446;53.850;10.662;2023-04-03T11:00:33;2.53;;;1.20;;
64932;SDS011;51446;53.850;10.662;2023-04-03T11:03:11;2.70;;;0.95;;
64932;SDS011;51446;53.850;10.662;2023-04-03T11:05:43;3.03;;;1.23;;
64932;SDS011;51446;53.850;10.662;2023-04-03T11:11:00;3.83;;;1.10;;
64932;SDS011;51446;53.850;10.662;2023-04-03T11:13:37;2.50;;;1.20;;
64932;SDS011;51446;53.850;10.662;2023-04-03T11:16:08;3.70;;;1.02;;
64932;SDS011;51446;53.850;10.662;2023-04-03T11:21:14;3.97;;;1.40;;
64932;SDS011;51446;53.850;10.662;2023-04-03T11:23:46;3.50;;;1.17;;
64932;SDS011;51446;53.850;10.662;2023-04-03T11:26:13;1.38;;;1.00;;
64932;SDS011;51446;53.850;10.662;2023-04-03T11:28:41;2.92;;;0.90;;
64932;SDS011;51446;53.850;10.662;2023-04-03T11:31:10;1.67;;;0.97;;
64932;SDS011;51446;53.850;10.662;2023-04-03T11:36:47;2.22;;;1.10;;
64932;SDS011;51446;53.850;10.662;2023-04-03T11:39:25;1.42;;;0.90;;
64932;SDS011;51446;53.850;10.662;2023-04-03T11:41:53;2.67;;;1.00;;
64932;SDS011;51446;53.850;10.662;2023-04-03T11:44:29;3.03;;;0.90;;
64932;SDS011;51446;53.850;10.662;2023-04-03T11:47:02;4.15;;;1.00;;
64932;SDS011;51446;53.850;10.662;2023-04-03T12:13:35;1.70;;;1.08;;
64932;SDS011;51446;53.850;10.662;2023-04-03T12:16:02;2.72;;;1.20;;
64932;SDS011;51446;53.850;10.662;2023-04-03T12:24:00;3.00;;;1.20;;
64932;SDS011;51446;53.850;10.662;2023-04-03T12:26:40;2.40;;;1.10;;
64932;SDS011;51446;53.850;10.662;2023-04-03T12:37:59;5.03;;;1.27;;
64932;SDS011;51446;53.850;10.662;2023-04-03T12:48:33;4.17;;;1.50;;
64932;SDS011;51446;53.850;10.662;2023-04-03T12:51:26;4.10;;;1.80;;
64932;SDS011;51446;53.850;10.662;2023-04-03T12:54:13;4.28;;;1.58;;
64932;SDS011;51446;53.850;10.662;2023-04-03T12:56:44;2.43;;;1.33;;
64932;SDS011;51446;53.850;10.662;2023-04-03T12:59:15;2.70;;;1.50;;
64932;SDS011;51446;53.850;10.662;2023-04-03T13:01:42;2.63;;;1.50;;
64932;SDS011;51446;53.850;10.662;2023-04-03T13:04:10;5.15;;;2.00;;
64932;SDS011;51446;53.850;10.662;2023-04-03T13:06:41;3.03;;;1.47;;
64932;SDS011;51446;53.850;10.662;2023-04-03T13:09:19;1.60;;;1.50;;
64932;SDS011;51446;53.850;10.662;2023-04-03T13:11:46;1.90;;;1.63;;
64932;SDS011;51446;53.850;10.662;2023-04-03T13:14:15;5.35;;;2.22;;
64932;SDS011;51446;53.850;10.662;2023-04-03T13:19:22;2.47;;;1.70;;
64932;SDS011;51446;53.850;10.662;2023-04-03T13:21:51;5.57;;;1.92;;
64932;SDS011;51446;53.850;10.662;2023-04-03T13:24:24;2.45;;;1.70;;
64932;SDS011;51446;53.850;10.662;2023-04-03T13:26:50;5.15;;;1.65;;
64932;SDS011;51446;53.850;10.662;2023-04-03T13:29:20;2.87;;;1.80;;
64932;SDS011;51446;53.850;10.662;2023-04-03T13:31:54;2.45;;;1.60;;
64932;SDS011;51446;53.850;10.662;2023-04-03T13:34:21;2.80;;;1.65;;
64932;SDS011;51446;53.850;10.662;2023-04-03T13:39:21;3.08;;;2.00;;
64932;SDS011;51446;53.850;10.662;2023-04-03T13:41:50;2.93;;;1.97;;
64932;SDS011;51446;53.850;10.662;2023-04-03T13:44:28;2.38;;;1.70;;
64932;SDS011;51446;53.850;10.662;2023-04-03T13:46:56;2.00;;;1.80;;
64932;SDS011;51446;53.850;10.662;2023-04-03T13:49:29;7.75;;;1.80;;
64932;SDS011;51446;53.850;10.662;2023-04-03T13:51:56;6.55;;;1.90;;
64932;SDS011;51446;53.850;10.662;2023-04-03T13:54:24;3.67;;;1.80;;
64932;SDS011;51446;53.850;10.662;2023-04-03T13:56:55;4.20;;;2.00;;
64932;SDS011;51446;53.850;10.662;2023-04-03T13:59:24;3.58;;;1.60;;
64932;SDS011;51446;53.850;10.662;2023-04-03T14:04:28;3.63;;;1.90;;
64932;SDS011;51446;53.850;10.662;2023-04-03T14:06:55;2.58;;;1.70;;
64932;SDS011;51446;53.850;10.662;2023-04-03T14:09:21;2.95;;;1.70;;
64932;SDS011;51446;53.850;10.662;2023-04-03T14:11:48;3.63;;;1.80;;
64932;SDS011;51446;53.850;10.662;2023-04-03T14:14:17;4.73;;;2.10;;
64932;SDS011;51446;53.850;10.662;2023-04-03T14:16:46;2.83;;;2.00;;
64932;SDS011;51446;53.850;10.662;2023-04-03T14:19:20;9.10;;;1.80;;
64932;SDS011;51446;53.850;10.662;2023-04-03T14:21:48;3.45;;;2.00;;
64932;SDS011;51446;53.850;10.662;2023-04-03T14:24:16;4.72;;;1.70;;
64932;SDS011;51446;53.850;10.662;2023-04-03T14:26:41;6.13;;;1.87;;
64932;SDS011;51446;53.850;10.662;2023-04-03T14:29:09;3.35;;;1.75;;
64932;SDS011;51446;53.850;10.662;2023-04-03T14:31:36;5.45;;;1.90;;
64932;SDS011;51446;53.850;10.662;2023-04-03T14:34:01;2.43;;;1.70;;
64932;SDS011;51446;53.850;10.662;2023-04-03T14:36:27;2.42;;;1.80;;
64932;SDS011;51446;53.850;10.662;2023-04-03T14:38:54;4.00;;;2.00;;
64932;SDS011;51446;53.850;10.662;2023-04-03T14:41:21;3.50;;;2.00;;
64932;SDS011;51446;53.850;10.662;2023-04-03T14:43:48;4.20;;;2.00;;
64932;SDS011;51446;53.850;10.662;2023-04-03T14:46:16;3.40;;;1.90;;
64932;SDS011;51446;53.850;10.662;2023-04-03T14:48:43;5.05;;;2.00;;
64932;SDS011;51446;53.850;10.662;2023-04-03T14:51:11;4.47;;;2.20;;
64932;SDS011;51446;53.850;10.662;2023-04-03T14:53:39;3.15;;;2.00;;
64932;SDS011;51446;53.850;10.662;2023-04-03T14:56:16;3.97;;;2.17;;
64932;SDS011;51446;53.850;10.662;2023-04-03T14:58:43;3.38;;;1.98;;
64932;SDS011;51446;53.850;10.662;2023-04-03T15:01:10;4.67;;;2.50;;
64932;SDS011;51446;53.850;10.662;2023-04-03T15:03:36;4.13;;;1.60;;
64932;SDS011;51446;53.850;10.662;2023-04-03T15:06:02;5.27;;;2.20;;
64932;SDS011;51446;53.850;10.662;2023-04-03T15:08:27;2.33;;;1.90;;
64932;SDS011;51446;53.850;10.662;2023-04-03T15:10:56;3.47;;;2.15;;
64932;SDS011;51446;53.850;10.662;2023-04-03T15:13:23;3.40;;;1.98;;
64932;SDS011;51446;53.850;10.662;2023-04-03T15:15:49;5.60;;;1.90;;
64932;SDS011;51446;53.850;10.662;2023-04-03T15:18:20;6.20;;;1.85;;
64932;SDS011;51446;53.850;10.662;2023-04-03T15:20:53;4.40;;;2.00;;
64932;SDS011;51446;53.850;10.662;2023-04-03T15:23:19;2.92;;;1.80;;
64932;SDS011;51446;53.850;10.662;2023-04-03T15:25:46;2.93;;;1.80;;
64932;SDS011;51446;53.850;10.662;2023-04-03T15:28:18;3.80;;;2.15;;
64932;SDS011;51446;53.850;10.662;2023-04-03T15:30:47;2.73;;;2.10;;
64932;SDS011;51446;53.850;10.662;2023-04-03T15:33:12;2.72;;;1.95;;
64932;SDS011;51446;53.850;10.662;2023-04-03T15:35:37;4.07;;;2.30;;
64932;SDS011;51446;53.850;10.662;2023-04-03T15:38:02;4.47;;;2.33;;
64932;SDS011;51446;53.850;10.662;2023-04-03T15:40:28;2.57;;;2.03;;
64932;SDS011;51446;53.850;10.662;2023-04-03T15:42:53;6.93;;;2.97;;
64932;SDS011;51446;53.850;10.662;2023-04-03T15:45:19;4.77;;;2.10;;
64932;SDS011;51446;53.850;10.662;2023-04-03T15:47:44;2.53;;;1.80;;
64932;SDS011;51446;53.850;10.662;2023-04-03T15:50:09;5.75;;;2.20;;
64932;SDS011;51446;53.850;10.662;2023-04-03T15:52:36;3.38;;;2.03;;
64932;SDS011;51446;53.850;10.662;2023-04-03T15:55:01;4.93;;;2.07;;
64932;SDS011;51446;53.850;10.662;2023-04-03T15:57:27;4.90;;;2.40;;
64932;SDS011;51446;53.850;10.662;2023-04-03T15:59:53;3.15;;;2.00;;
64932;SDS011;51446;53.850;10.662;2023-04-03T16:02:19;3.60;;;2.10;;
64932;SDS011;51446;53.850;10.662;2023-04-03T16:04:44;3.47;;;2.10;;
64932;SDS011;51446;53.850;10.662;2023-04-03T16:07:09;7.80;;;2.20;;
64932;SDS011;51446;53.850;10.662;2023-04-03T16:09:35;2.67;;;1.93;;
64932;SDS011;51446;53.850;10.662;2023-04-03T16:12:00;2.83;;;2.37;;
64932;SDS011;51446;53.850;10.662;2023-04-03T16:14:27;6.65;;;2.20;;
64932;SDS011;51446;53.850;10.662;2023-04-03T16:16:53;4.07;;;1.80;;
64932;SDS011;51446;53.850;10.662;2023-04-03T16:19:18;4.97;;;1.93;;
64932;SDS011;51446;53.850;10.662;2023-04-03T16:21:44;3.20;;;2.30;;
64932;SDS011;51446;53.850;10.662;2023-04-03T16:24:09;3.60;;;2.00;;
64932;SDS011;51446;53.850;10.662;2023-04-03T16:26:34;6.33;;;2.20;;